sensor_id;sensor_type;location;lat;lon;timestamp;pressure;altitude;pressure_sealevel;temperature;humidity
59110;BME280;44895;47.438;18.978;2023-12-20T00:01:13;100255.94;;;0.73;100.00
59110;BME280;44895;47.438;18.978;2023-12-20T00:04:17;100240.81;;;0.48;100.00
59110;BME280;44895;47.438;18.978;2023-12-20T00:07:20;100241.81;;;0.29;100.00
59110;BME280;44895;47.438;18.978;2023-12-20T00:10:24;100211.38;;;-0.07;100.00
59110;BME280;44895;47.438;18.978;2023-12-20T00:13:28;100234.06;;;0.46;100.00
59110;BME280;44895;47.438;18.978;2023-12-20T00:16:32;100231.91;;;0.55;100.00
59110;BME280;44895;47.438;18.978;2023-12-20T00:19:36;100227.69;;;0.47;100.00
59110;BME280;44895;47.438;18.978;2023-12-20T00:22:40;100226.53;;;0.18;100.00
59110;BME280;44895;47.438;18.978;2023-12-20T00:25:43;100218.16;;;0.32;100.00
59110;BME280;44895;47.438;18.978;2023-12-20T00:28:47;100206.94;;;0.05;100.00
59110;BME280;44895;47.438;18.978;2023-12-20T00:31:51;100212.81;;;0.32;100.00
59110;BME280;44895;47.438;18.978;2023-12-20T00:34:55;100203.00;;;0.26;100.00
59110;BME280;44895;47.438;18.978;2023-12-20T00:37:59;100195.69;;;0.22;100.00
59110;BME280;44895;47.438;18.978;2023-12-20T00:41:03;100199.09;;;0.10;100.00
59110;BME280;44895;47.438;18.978;2023-12-20T00:44:06;100192.69;;;-0.07;100.00
59110;BME280;44895;47.438;18.978;2023-12-20T00:47:10;100188.69;;;0.39;100.00
59110;BME280;44895;47.438;18.978;2023-12-20T00:50:15;100180.56;;;0.64;100.00
59110;BME280;44895;47.438;18.978;2023-12-20T00:53:18;100185.72;;;0.47;100.00
59110;BME280;44895;47.438;18.978;2023-12-20T00:56:22;100170.81;;;0.21;100.00
59110;BME280;44895;47.438;18.978;2023-12-20T00:59:27;100170.59;;;0.04;100.00
59110;BME280;44895;47.438;18.978;2023-12-20T01:02:31;100163.22;;;0.55;100.00
59110;BME280;44895;47.438;18.978;2023-12-20T01:05:35;100161.75;;;0.22;100.00
59110;BME280;44895;47.438;18.978;2023-12-20T01:08:38;100164.13;;;0.30;100.00
59110;BME280;44895;47.438;18.978;2023-12-20T01:11:43;100153.38;;;0.68;100.00
59110;BME280;44895;47.438;18.978;2023-12-20T01:14:47;100150.75;;;0.79;100.00
59110;BME280;44895;47.438;18.978;2023-12-20T01:17:51;100145.56;;;0.36;100.00
59110;BME280;44895;47.438;18.978;2023-12-20T01:20:55;100137.72;;;0.71;100.00
59110;BME280;44895;47.438;18.978;2023-12-20T01:23:59;100133.06;;;0.78;100.00
59110;BME280;44895;47.438;18.978;2023-12-20T01:27:03;100124.50;;;0.09;100.00
59110;BME280;44895;47.438;18.978;2023-12-20T01:30:08;100116.47;;;0.27;100.00
59110;BME280;44895;47.438;18.978;2023-12-20T01:33:12;100120.22;;;0.08;100.00
59110;BME280;44895;47.438;18.978;2023-12-20T01:36:16;100114.09;;;-0.18;100.00
59110;BME280;44895;47.438;18.978;2023-12-20T01:39:20;100106.06;;;0.38;100.00
59110;BME280;44895;47.438;18.978;2023-12-20T01:42:24;100108.69;;;0.44;100.00
59110;BME280;44895;47.438;18.978;2023-12-20T01:45:28;100110.22;;;0.52;100.00
59110;BME280;44895;47.438;18.978;2023-12-20T01:48:32;100097.91;;;0.32;100.00
59110;BME280;44895;47.438;18.978;2023-12-20T01:51:37;100094.97;;;0.22;100.00
59110;BME280;44895;47.438;18.978;2023-12-20T01:54:42;100081.69;;;0.15;100.00
59110;BME280;44895;47.438;18.978;2023-12-20T01:57:47;100075.72;;;0.32;100.00
59110;BME280;44895;47.438;18.978;2023-12-20T02:00:51;100068.88;;;0.36;100.00
59110;BME280;44895;47.438;18.978;2023-12-20T02:03:56;100060.38;;;0.27;100.00
59110;BME280;44895;47.438;18.978;2023-12-20T02:07:01;100054.44;;;0.25;100.00
59110;BME280;44895;47.438;18.978;2023-12-20T02:10:06;100044.44;;;0.21;100.00
59110;BME280;44895;47.438;18.978;2023-12-20T02:13:10;100052.16;;;0.71;100.00
59110;BME280;44895;47.438;18.978;2023-12-20T02:16:14;100055.78;;;0.46;100.00
59110;BME280;44895;47.438;18.978;2023-12-20T02:19:19;100048.19;;;0.31;100.00
59110;BME280;44895;47.438;18.978;2023-12-20T02:22:23;100049.31;;;0.24;100.00
59110;BME280;44895;47.438;18.978;2023-12-20T02:25:27;100039.06;;;-0.28;100.00
59110;BME280;44895;47.438;18.978;2023-12-20T02:28:31;100032.25;;;-0.43;100.00
59110;BME280;44895;47.438;18.978;2023-12-20T02:31:36;100029.88;;;-0.32;100.00
59110;BME280;44895;47.438;18.978;2023-12-20T02:34:40;100028.22;;;-0.52;100.00
59110;BME280;44895;47.438;18.978;2023-12-20T02:37:44;100037.88;;;-0.32;100.00
59110;BME280;44895;47.438;18.978;2023-12-20T02:40:47;100026.00;;;0.01;100.00
59110;BME280;44895;47.438;18.978;2023-12-20T02:43:51;100016.81;;;-0.41;100.00
59110;BME280;44895;47.438;18.978;2023-12-20T02:46:55;100007.53;;;-0.20;100.00
59110;BME280;44895;47.438;18.978;2023-12-20T02:49:59;100005.25;;;-0.16;100.00
59110;BME280;44895;47.438;18.978;2023-12-20T02:53:02;100006.06;;;-0.71;100.00
59110;BME280;44895;47.438;18.978;2023-12-20T02:56:07;99998.59;;;-0.25;100.00
59110;BME280;44895;47.438;18.978;2023-12-20T02:59:11;99993.34;;;-0.02;100.00
59110;BME280;44895;47.438;18.978;2023-12-20T03:02:14;99990.03;;;0.15;100.00
59110;BME280;44895;47.438;18.978;2023-12-20T03:05:19;99995.47;;;-0.22;100.00
59110;BME280;44895;47.438;18.978;2023-12-20T03:08:23;99990.97;;;-0.40;100.00
59110;BME280;44895;47.438;18.978;2023-12-20T03:11:27;99999.25;;;-0.11;100.00
59110;BME280;44895;47.438;18.978;2023-12-20T03:14:32;99994.34;;;-0.14;100.00
59110;BME280;44895;47.438;18.978;2023-12-20T03:17:36;100000.72;;;0.15;100.00
59110;BME280;44895;47.438;18.978;2023-12-20T03:20:40;99984.63;;;-0.09;100.00
59110;BME280;44895;47.438;18.978;2023-12-20T03:23:45;99996.44;;;-0.35;100.00
59110;BME280;44895;47.438;18.978;2023-12-20T03:26:49;99992.97;;;0.25;100.00
59110;BME280;44895;47.438;18.978;2023-12-20T03:29:53;99991.94;;;0.26;100.00
59110;BME280;44895;47.438;18.978;2023-12-20T03:32:57;99987.50;;;0.20;100.00
59110;BME280;44895;47.438;18.978;2023-12-20T03:36:01;99991.28;;;0.43;100.00
59110;BME280;44895;47.438;18.978;2023-12-20T03:39:05;99989.72;;;0.65;100.00
59110;BME280;44895;47.438;18.978;2023-12-20T03:42:09;99992.88;;;0.74;100.00
59110;BME280;44895;47.438;18.978;2023-12-20T03:45:13;100000.78;;;0.81;100.00
59110;BME280;44895;47.438;18.978;2023-12-20T03:48:16;99999.25;;;0.73;100.00
59110;BME280;44895;47.438;18.978;2023-12-20T03:51:20;99991.03;;;0.87;100.00
59110;BME280;44895;47.438;18.978;2023-12-20T03:54:24;99991.03;;;0.75;100.00
59110;BME280;44895;47.438;18.978;2023-12-20T03:57:28;99986.97;;;0.84;100.00
59110;BME280;44895;47.438;18.978;2023-12-20T04:00:32;99974.28;;;0.68;100.00
59110;BME280;44895;47.438;18.978;2023-12-20T04:03:36;99979.72;;;0.61;100.00
59110;BME280;44895;47.438;18.978;2023-12-20T04:06:40;99973.84;;;0.28;100.00
59110;BME280;44895;47.438;18.978;2023-12-20T04:09:43;99960.53;;;0.64;100.00
59110;BME280;44895;47.438;18.978;2023-12-20T04:12:48;99960.25;;;0.30;100.00
59110;BME280;44895;47.438;18.978;2023-12-20T04:15:52;99963.34;;;0.57;100.00
59110;BME280;44895;47.438;18.978;2023-12-20T04:18:55;99952.34;;;0.23;100.00
59110;BME280;44895;47.438;18.978;2023-12-20T04:22:00;99959.22;;;0.31;100.00
59110;BME280;44895;47.438;18.978;2023-12-20T04:25:03;99963.88;;;0.36;100.00
59110;BME280;44895;47.438;18.978;2023-12-20T04:28:07;99953.63;;;0.32;100.00
59110;BME280;44895;47.438;18.978;2023-12-20T04:31:11;99945.66;;;0.14;100.00
59110;BME280;44895;47.438;18.978;2023-12-20T04:34:16;99952.84;;;0.44;100.00
59110;BME280;44895;47.438;18.978;2023-12-20T04:37:20;99942.75;;;0.46;100.00
59110;BME280;44895;47.438;18.978;2023-12-20T04:40:23;99937.22;;;0.17;100.00
59110;BME280;44895;47.438;18.978;2023-12-20T04:43:27;99928.91;;;0.37;100.00
59110;BME280;44895;47.438;18.978;2023-12-20T04:46:32;99935.16;;;0.31;100.00
59110;BME280;44895;47.438;18.978;2023-12-20T04:49:36;99937.28;;;0.53;100.00
59110;BME280;44895;47.438;18.978;2023-12-20T04:52:39;99934.41;;;0.78;100.00
59110;BME280;44895;47.438;18.978;2023-12-20T04:55:43;99909.50;;;0.65;100.00
59110;BME280;44895;47.438;18.978;2023-12-20T04:58:47;99907.44;;;0.68;100.00
59110;BME280;44895;47.438;18.978;2023-12-20T05:01:52;99900.22;;;0.56;100.00
59110;BME280;44895;47.438;18.978;2023-12-20T05:04:57;99886.50;;;0.53;100.00
59110;BME280;44895;47.438;18.978;2023-12-20T05:08:00;99884.50;;;0.24;100.00
59110;BME280;44895;47.438;18.978;2023-12-20T05:11:04;99891.88;;;-0.02;100.00
59110;BME280;44895;47.438;18.978;2023-12-20T05:14:09;99888.56;;;0.27;100.00
59110;BME280;44895;47.438;18.978;2023-12-20T05:17:13;99875.28;;;-0.04;100.00
59110;BME280;44895;47.438;18.978;2023-12-20T05:20:17;99877.34;;;-0.06;100.00
59110;BME280;44895;47.438;18.978;2023-12-20T05:23:20;99876.97;;;0.33;100.00
59110;BME280;44895;47.438;18.978;2023-12-20T05:26:24;99872.06;;;0.42;100.00
59110;BME280;44895;47.438;18.978;2023-12-20T05:29:28;99889.28;;;0.46;100.00
59110;BME280;44895;47.438;18.978;2023-12-20T05:32:32;99909.63;;;0.59;100.00
59110;BME280;44895;47.438;18.978;2023-12-20T05:35:36;99914.75;;;0.60;100.00
59110;BME280;44895;47.438;18.978;2023-12-20T05:38:40;99926.13;;;0.44;100.00
59110;BME280;44895;47.438;18.978;2023-12-20T05:41:44;99913.66;;;0.26;100.00
59110;BME280;44895;47.438;18.978;2023-12-20T05:44:48;99913.13;;;0.47;100.00
59110;BME280;44895;47.438;18.978;2023-12-20T05:47:52;99909.25;;;0.31;100.00
59110;BME280;44895;47.438;18.978;2023-12-20T05:50:56;99897.06;;;0.36;100.00
59110;BME280;44895;47.438;18.978;2023-12-20T05:54:00;99884.59;;;0.06;100.00
59110;BME280;44895;47.438;18.978;2023-12-20T05:57:04;99896.63;;;-0.04;100.00
59110;BME280;44895;47.438;18.978;2023-12-20T06:00:09;99873.47;;;-0.22;100.00
59110;BME280;44895;47.438;18.978;2023-12-20T06:03:17;99880.13;;;-0.12;100.00
59110;BME280;44895;47.438;18.978;2023-12-20T06:06:21;99872.47;;;-0.09;100.00
59110;BME280;44895;47.438;18.978;2023-12-20T06:09:27;99863.94;;;0.13;100.00
59110;BME280;44895;47.438;18.978;2023-12-20T06:12:31;99853.84;;;-0.27;100.00
59110;BME280;44895;47.438;18.978;2023-12-20T06:15:37;99854.63;;;-0.39;100.00
59110;BME280;44895;47.438;18.978;2023-12-20T06:18:41;99847.28;;;-0.43;100.00
59110;BME280;44895;47.438;18.978;2023-12-20T06:21:44;99850.66;;;-0.48;100.00
59110;BME280;44895;47.438;18.978;2023-12-20T06:24:48;99859.78;;;-0.56;100.00
59110;BME280;44895;47.438;18.978;2023-12-20T06:27:52;99845.19;;;-0.53;100.00
59110;BME280;44895;47.438;18.978;2023-12-20T06:30:56;99853.88;;;-0.46;100.00
59110;BME280;44895;47.438;18.978;2023-12-20T06:34:00;99858.31;;;-0.40;100.00
59110;BME280;44895;47.438;18.978;2023-12-20T06:37:04;99863.09;;;-0.42;100.00
59110;BME280;44895;47.438;18.978;2023-12-20T06:40:09;99868.19;;;-0.40;100.00
59110;BME280;44895;47.438;18.978;2023-12-20T06:43:14;99865.94;;;-0.13;100.00
59110;BME280;44895;47.438;18.978;2023-12-20T06:46:18;99880.06;;;-0.24;100.00
59110;BME280;44895;47.438;18.978;2023-12-20T06:49:22;99904.91;;;0.07;100.00
59110;BME280;44895;47.438;18.978;2023-12-20T06:52:26;99902.19;;;-0.05;100.00
59110;BME280;44895;47.438;18.978;2023-12-20T06:55:29;99902.13;;;0.13;100.00
59110;BME280;44895;47.438;18.978;2023-12-20T06:58:34;99901.22;;;0.20;100.00
59110;BME280;44895;47.438;18.978;2023-12-20T07:01:40;99900.72;;;0.11;100.00
59110;BME280;44895;47.438;18.978;2023-12-20T07:04:44;99901.88;;;0.03;100.00
59110;BME280;44895;47.438;18.978;2023-12-20T07:07:47;99902.81;;;0.09;100.00
59110;BME280;44895;47.438;18.978;2023-12-20T07:10:51;99907.97;;;0.22;100.00
59110;BME280;44895;47.438;18.978;2023-12-20T07:13:55;99898.66;;;0.25;100.00
59110;BME280;44895;47.438;18.978;2023-12-20T07:16:59;99888.75;;;0.02;100.00
59110;BME280;44895;47.438;18.978;2023-12-20T07:20:04;99895.50;;;0.16;100.00
59110;BME280;44895;47.438;18.978;2023-12-20T07:23:10;99895.75;;;0.26;100.00
59110;BME280;44895;47.438;18.978;2023-12-20T07:26:15;99898.78;;;0.18;100.00
59110;BME280;44895;47.438;18.978;2023-12-20T07:29:19;99897.66;;;0.61;100.00
59110;BME280;44895;47.438;18.978;2023-12-20T07:32:23;99905.53;;;0.32;100.00
59110;BME280;44895;47.438;18.978;2023-12-20T07:35:28;99895.31;;;0.53;100.00
59110;BME280;44895;47.438;18.978;2023-12-20T07:38:31;99890.00;;;0.65;100.00
59110;BME280;44895;47.438;18.978;2023-12-20T07:41:35;99895.00;;;0.61;100.00
59110;BME280;44895;47.438;18.978;2023-12-20T07:44:39;99896.25;;;0.71;100.00
59110;BME280;44895;47.438;18.978;2023-12-20T07:47:43;99898.38;;;0.69;100.00
59110;BME280;44895;47.438;18.978;2023-12-20T07:50:47;99896.50;;;0.57;100.00
59110;BME280;44895;47.438;18.978;2023-12-20T07:53:51;99896.97;;;0.78;100.00
59110;BME280;44895;47.438;18.978;2023-12-20T07:56:57;99890.66;;;0.37;100.00
59110;BME280;44895;47.438;18.978;2023-12-20T08:00:01;99886.50;;;0.41;100.00
59110;BME280;44895;47.438;18.978;2023-12-20T08:03:08;99879.88;;;0.67;100.00
59110;BME280;44895;47.438;18.978;2023-12-20T08:06:12;99874.06;;;0.35;100.00
59110;BME280;44895;47.438;18.978;2023-12-20T08:09:16;99869.75;;;0.81;100.00
59110;BME280;44895;47.438;18.978;2023-12-20T08:12:20;99869.28;;;0.96;100.00
59110;BME280;44895;47.438;18.978;2023-12-20T08:15:24;99870.22;;;0.78;100.00
59110;BME280;44895;47.438;18.978;2023-12-20T08:18:28;99871.59;;;0.92;100.00
59110;BME280;44895;47.438;18.978;2023-12-20T08:21:32;99876.50;;;0.84;100.00
59110;BME280;44895;47.438;18.978;2023-12-20T08:24:36;99878.59;;;0.58;100.00
59110;BME280;44895;47.438;18.978;2023-12-20T08:27:40;99876.34;;;1.02;100.00
59110;BME280;44895;47.438;18.978;2023-12-20T08:30:45;99887.03;;;1.14;100.00
59110;BME280;44895;47.438;18.978;2023-12-20T08:33:49;99896.22;;;1.18;100.00
59110;BME280;44895;47.438;18.978;2023-12-20T08:36:54;99879.84;;;1.14;100.00
59110;BME280;44895;47.438;18.978;2023-12-20T08:39:58;99890.69;;;0.84;100.00
59110;BME280;44895;47.438;18.978;2023-12-20T08:43:02;99886.97;;;0.85;100.00
59110;BME280;44895;47.438;18.978;2023-12-20T08:46:07;99890.22;;;0.87;100.00
59110;BME280;44895;47.438;18.978;2023-12-20T08:49:13;99888.13;;;0.65;100.00
59110;BME280;44895;47.438;18.978;2023-12-20T08:52:17;99888.31;;;1.11;100.00
59110;BME280;44895;47.438;18.978;2023-12-20T08:55:21;99881.56;;;1.09;100.00
59110;BME280;44895;47.438;18.978;2023-12-20T08:58:26;99876.22;;;1.09;100.00
59110;BME280;44895;47.438;18.978;2023-12-20T09:01:29;99885.72;;;1.28;100.00
59110;BME280;44895;47.438;18.978;2023-12-20T09:04:34;99884.09;;;1.27;100.00
59110;BME280;44895;47.438;18.978;2023-12-20T09:07:38;99891.31;;;1.27;100.00
59110;BME280;44895;47.438;18.978;2023-12-20T09:10:42;99887.06;;;1.55;100.00
59110;BME280;44895;47.438;18.978;2023-12-20T09:13:46;99881.91;;;1.82;100.00
59110;BME280;44895;47.438;18.978;2023-12-20T09:16:50;99876.59;;;2.16;100.00
59110;BME280;44895;47.438;18.978;2023-12-20T09:19:55;99875.06;;;2.54;100.00
59110;BME280;44895;47.438;18.978;2023-12-20T09:22:59;99878.78;;;2.70;100.00
59110;BME280;44895;47.438;18.978;2023-12-20T09:26:03;99860.41;;;3.46;100.00
59110;BME280;44895;47.438;18.978;2023-12-20T09:29:07;99862.34;;;3.28;100.00
59110;BME280;44895;47.438;18.978;2023-12-20T09:32:13;99847.03;;;4.05;100.00
59110;BME280;44895;47.438;18.978;2023-12-20T09:35:17;99841.66;;;4.05;100.00
59110;BME280;44895;47.438;18.978;2023-12-20T09:38:21;99833.22;;;3.91;100.00
59110;BME280;44895;47.438;18.978;2023-12-20T09:41:26;99820.78;;;3.85;100.00
59110;BME280;44895;47.438;18.978;2023-12-20T09:44:32;99819.41;;;4.15;100.00
59110;BME280;44895;47.438;18.978;2023-12-20T09:47:42;99820.31;;;5.37;100.00
59110;BME280;44895;47.438;18.978;2023-12-20T09:50:46;99813.66;;;6.43;100.00
59110;BME280;44895;47.438;18.978;2023-12-20T09:53:54;99796.78;;;7.88;100.00
59110;BME280;44895;47.438;18.978;2023-12-20T09:56:58;99784.06;;;8.23;100.00
59110;BME280;44895;47.438;18.978;2023-12-20T10:00:02;99793.16;;;9.67;100.00
59110;BME280;44895;47.438;18.978;2023-12-20T10:03:15;99778.84;;;11.02;93.08
59110;BME280;44895;47.438;18.978;2023-12-20T10:06:19;99783.50;;;12.52;78.94
59110;BME280;44895;47.438;18.978;2023-12-20T10:09:24;99787.72;;;10.66;72.86
59110;BME280;44895;47.438;18.978;2023-12-20T10:12:28;99777.72;;;7.68;100.00
59110;BME280;44895;47.438;18.978;2023-12-20T10:15:36;99772.19;;;7.84;100.00
59110;BME280;44895;47.438;18.978;2023-12-20T10:18:40;99782.69;;;10.46;100.00
59110;BME280;44895;47.438;18.978;2023-12-20T10:21:45;99757.38;;;13.09;72.64
59110;BME280;44895;47.438;18.978;2023-12-20T10:24:50;99749.13;;;11.20;74.01
59110;BME280;44895;47.438;18.978;2023-12-20T10:28:14;99750.41;;;13.43;64.75
59110;BME280;44895;47.438;18.978;2023-12-20T10:31:26;99740.56;;;13.68;64.26
59110;BME280;44895;47.438;18.978;2023-12-20T10:34:32;99733.63;;;11.20;68.64
59110;BME280;44895;47.438;18.978;2023-12-20T10:37:37;99743.22;;;8.48;100.00
59110;BME280;44895;47.438;18.978;2023-12-20T10:40:41;99738.84;;;7.64;100.00
59110;BME280;44895;47.438;18.978;2023-12-20T10:43:45;99742.28;;;7.35;100.00
59110;BME280;44895;47.438;18.978;2023-12-20T10:46:50;99731.97;;;7.03;100.00
59110;BME280;44895;47.438;18.978;2023-12-20T10:50:01;99728.78;;;7.70;100.00
59110;BME280;44895;47.438;18.978;2023-12-20T10:53:09;99727.69;;;7.37;100.00
59110;BME280;44895;47.438;18.978;2023-12-20T10:56:17;99728.31;;;7.23;100.00
59110;BME280;44895;47.438;18.978;2023-12-20T10:59:27;99731.13;;;7.02;100.00
59110;BME280;44895;47.438;18.978;2023-12-20T11:02:38;99722.91;;;7.23;100.00
59110;BME280;44895;47.438;18.978;2023-12-20T11:05:49;99723.41;;;7.30;100.00
59110;BME280;44895;47.438;18.978;2023-12-20T11:15:22;99686.22;;;7.22;100.00
59110;BME280;44895;47.438;18.978;2023-12-20T11:18:29;99690.31;;;7.49;100.00
59110;BME280;44895;47.438;18.978;2023-12-20T11:21:34;99678.78;;;7.38;100.00
59110;BME280;44895;47.438;18.978;2023-12-20T11:24:44;99663.75;;;7.56;100.00
59110;BME280;44895;47.438;18.978;2023-12-20T11:28:08;99636.72;;;7.61;100.00
59110;BME280;44895;47.438;18.978;2023-12-20T11:31:14;99642.75;;;7.77;100.00
59110;BME280;44895;47.438;18.978;2023-12-20T11:34:19;99631.28;;;7.91;100.00
59110;BME280;44895;47.438;18.978;2023-12-20T11:37:28;99634.56;;;7.88;100.00
59110;BME280;44895;47.438;18.978;2023-12-20T11:40:33;99647.63;;;7.80;100.00
59110;BME280;44895;47.438;18.978;2023-12-20T11:43:39;99651.34;;;7.84;100.00
59110;BME280;44895;47.438;18.978;2023-12-20T11:46:44;99638.94;;;7.83;100.00
59110;BME280;44895;47.438;18.978;2023-12-20T11:49:48;99638.94;;;7.83;100.00
59110;BME280;44895;47.438;18.978;2023-12-20T11:52:54;99636.28;;;7.78;100.00
59110;BME280;44895;47.438;18.978;2023-12-20T11:55:58;99628.59;;;7.91;100.00
59110;BME280;44895;47.438;18.978;2023-12-20T11:59:03;99630.25;;;8.11;100.00
59110;BME280;44895;47.438;18.978;2023-12-20T12:02:07;99633.63;;;8.22;100.00
59110;BME280;44895;47.438;18.978;2023-12-20T12:05:11;99627.91;;;8.53;100.00
59110;BME280;44895;47.438;18.978;2023-12-20T12:08:15;99621.09;;;8.74;100.00
59110;BME280;44895;47.438;18.978;2023-12-20T12:11:19;99617.44;;;9.03;100.00
59110;BME280;44895;47.438;18.978;2023-12-20T12:14:24;99605.22;;;9.06;100.00
59110;BME280;44895;47.438;18.978;2023-12-20T12:17:28;99615.41;;;9.28;100.00
59110;BME280;44895;47.438;18.978;2023-12-20T12:20:32;99609.56;;;9.21;100.00
59110;BME280;44895;47.438;18.978;2023-12-20T12:23:36;99626.44;;;8.98;100.00
59110;BME280;44895;47.438;18.978;2023-12-20T12:26:41;99630.88;;;8.70;100.00
59110;BME280;44895;47.438;18.978;2023-12-20T12:30:01;99632.44;;;8.76;100.00
59110;BME280;44895;47.438;18.978;2023-12-20T12:33:11;99627.53;;;8.78;100.00
59110;BME280;44895;47.438;18.978;2023-12-20T12:36:16;99631.47;;;8.67;100.00
59110;BME280;44895;47.438;18.978;2023-12-20T12:39:23;99627.75;;;7.90;100.00
59110;BME280;44895;47.438;18.978;2023-12-20T12:42:27;99625.59;;;8.16;100.00
59110;BME280;44895;47.438;18.978;2023-12-20T12:45:32;99626.13;;;7.94;100.00
59110;BME280;44895;47.438;18.978;2023-12-20T12:48:37;99626.78;;;8.05;100.00
59110;BME280;44895;47.438;18.978;2023-12-20T12:51:41;99642.47;;;7.79;100.00
59110;BME280;44895;47.438;18.978;2023-12-20T12:54:45;99633.97;;;7.66;100.00
59110;BME280;44895;47.438;18.978;2023-12-20T12:57:49;99643.25;;;7.55;100.00
59110;BME280;44895;47.438;18.978;2023-12-20T13:00:52;99628.72;;;7.46;100.00
59110;BME280;44895;47.438;18.978;2023-12-20T13:03:57;99632.53;;;7.10;100.00
59110;BME280;44895;47.438;18.978;2023-12-20T13:07:01;99618.50;;;7.08;100.00
59110;BME280;44895;47.438;18.978;2023-12-20T13:10:05;99621.00;;;6.99;100.00
59110;BME280;44895;47.438;18.978;2023-12-20T13:13:09;99632.97;;;6.88;100.00
59110;BME280;44895;47.438;18.978;2023-12-20T13:16:13;99632.06;;;7.03;100.00
59110;BME280;44895;47.438;18.978;2023-12-20T13:19:17;99623.47;;;6.96;100.00
59110;BME280;44895;47.438;18.978;2023-12-20T13:22:21;99608.78;;;6.67;100.00
59110;BME280;44895;47.438;18.978;2023-12-20T13:25:25;99611.53;;;6.57;100.00
59110;BME280;44895;47.438;18.978;2023-12-20T13:28:29;99607.13;;;6.77;100.00
59110;BME280;44895;47.438;18.978;2023-12-20T13:31:33;99607.19;;;6.66;100.00
59110;BME280;44895;47.438;18.978;2023-12-20T13:34:40;99607.03;;;6.37;100.00
59110;BME280;44895;47.438;18.978;2023-12-20T13:37:44;99613.47;;;6.51;100.00
59110;BME280;44895;47.438;18.978;2023-12-20T13:40:48;99610.22;;;6.49;100.00
59110;BME280;44895;47.438;18.978;2023-12-20T13:43:52;99616.47;;;6.40;100.00
59110;BME280;44895;47.438;18.978;2023-12-20T13:46:56;99607.97;;;6.17;100.00
59110;BME280;44895;47.438;18.978;2023-12-20T13:50:00;99625.78;;;5.97;100.00
59110;BME280;44895;47.438;18.978;2023-12-20T13:53:03;99610.66;;;6.07;100.00
59110;BME280;44895;47.438;18.978;2023-12-20T13:56:08;99618.75;;;6.07;100.00
59110;BME280;44895;47.438;18.978;2023-12-20T13:59:12;99616.34;;;5.90;100.00
59110;BME280;44895;47.438;18.978;2023-12-20T14:02:17;99624.16;;;6.01;100.00
59110;BME280;44895;47.438;18.978;2023-12-20T14:05:21;99627.13;;;6.00;100.00
59110;BME280;44895;47.438;18.978;2023-12-20T14:08:27;99630.69;;;5.64;100.00
59110;BME280;44895;47.438;18.978;2023-12-20T14:11:31;99635.84;;;5.40;100.00
59110;BME280;44895;47.438;18.978;2023-12-20T14:14:35;99648.22;;;5.51;100.00
59110;BME280;44895;47.438;18.978;2023-12-20T14:17:40;99616.97;;;5.45;100.00
59110;BME280;44895;47.438;18.978;2023-12-20T14:20:45;99633.66;;;5.42;100.00
59110;BME280;44895;47.438;18.978;2023-12-20T14:23:51;99630.72;;;5.33;100.00
59110;BME280;44895;47.438;18.978;2023-12-20T14:26:56;99639.06;;;5.16;100.00
59110;BME280;44895;47.438;18.978;2023-12-20T14:29:59;99637.44;;;5.15;100.00
59110;BME280;44895;47.438;18.978;2023-12-20T14:33:04;99634.47;;;5.01;100.00
59110;BME280;44895;47.438;18.978;2023-12-20T14:36:08;99633.94;;;5.04;100.00
59110;BME280;44895;47.438;18.978;2023-12-20T14:39:12;99642.53;;;5.06;100.00
59110;BME280;44895;47.438;18.978;2023-12-20T14:42:17;99649.81;;;5.11;100.00
59110;BME280;44895;47.438;18.978;2023-12-20T14:45:21;99630.41;;;4.94;100.00
59110;BME280;44895;47.438;18.978;2023-12-20T14:48:25;99634.16;;;4.93;100.00
59110;BME280;44895;47.438;18.978;2023-12-20T14:51:31;99647.66;;;5.03;100.00
59110;BME280;44895;47.438;18.978;2023-12-20T14:54:35;99639.84;;;5.01;100.00
59110;BME280;44895;47.438;18.978;2023-12-20T14:57:39;99654.34;;;4.85;100.00
59110;BME280;44895;47.438;18.978;2023-12-20T15:00:43;99657.03;;;4.80;100.00
59110;BME280;44895;47.438;18.978;2023-12-20T15:03:48;99677.00;;;4.94;100.00
59110;BME280;44895;47.438;18.978;2023-12-20T15:06:52;99674.28;;;4.89;100.00
59110;BME280;44895;47.438;18.978;2023-12-20T15:09:57;99671.91;;;5.03;100.00
59110;BME280;44895;47.438;18.978;2023-12-20T15:13:01;99678.84;;;4.94;100.00
59110;BME280;44895;47.438;18.978;2023-12-20T15:16:06;99673.75;;;4.97;100.00
59110;BME280;44895;47.438;18.978;2023-12-20T15:19:09;99670.78;;;4.99;100.00
59110;BME280;44895;47.438;18.978;2023-12-20T15:22:13;99682.63;;;4.98;100.00
59110;BME280;44895;47.438;18.978;2023-12-20T15:25:18;99695.00;;;4.88;100.00
59110;BME280;44895;47.438;18.978;2023-12-20T15:28:25;99703.09;;;5.04;100.00
59110;BME280;44895;47.438;18.978;2023-12-20T15:31:28;99705.78;;;4.99;100.00
59110;BME280;44895;47.438;18.978;2023-12-20T15:34:33;99707.97;;;5.02;100.00
59110;BME280;44895;47.438;18.978;2023-12-20T15:37:38;99702.84;;;5.05;100.00
59110;BME280;44895;47.438;18.978;2023-12-20T15:40:42;99709.03;;;5.01;100.00
59110;BME280;44895;47.438;18.978;2023-12-20T15:43:46;99710.38;;;4.98;100.00
59110;BME280;44895;47.438;18.978;2023-12-20T15:46:51;99711.69;;;4.90;100.00
59110;BME280;44895;47.438;18.978;2023-12-20T15:49:54;99717.09;;;4.96;100.00
59110;BME280;44895;47.438;18.978;2023-12-20T15:52:59;99705.75;;;4.83;100.00
59110;BME280;44895;47.438;18.978;2023-12-20T15:56:04;99706.81;;;4.82;100.00
59110;BME280;44895;47.438;18.978;2023-12-20T15:59:08;99723.28;;;4.96;100.00
59110;BME280;44895;47.438;18.978;2023-12-20T16:02:14;99726.19;;;4.79;100.00
59110;BME280;44895;47.438;18.978;2023-12-20T16:05:21;99720.31;;;4.98;100.00
59110;BME280;44895;47.438;18.978;2023-12-20T16:08:25;99725.75;;;5.08;100.00